Time;durP1;ratioP1;P1;durP2;ratioP2;P2;SDS_P1;SDS_P2;PMS_P1;PMS_P2;Temp;Humidity;BMP_temperature;BMP_pressure;BME280_temperature;BME280_humidity;BME280_pressure;Samples;Min_cycle;Max_cycle;Signal;HPM_P1;HPM_P2
2021/03/14 00:01:05;;;;;;;3.37;0.60;;;-5.00;41.30;;;;;;4370513;32;20078;-33
2021/03/14 00:03:31;;;;;;;1.30;0.57;;;-5.00;41.40;;;;;;4370281;32;20509;-33
2021/03/14 00:05:58;;;;;;;3.60;0.47;;;-5.00;41.40;;;;;;4329882;33;20603;-33
2021/03/14 00:08:27;;;;;;;0.73;0.43;;;-5.00;41.40;;;;;;4343958;33;20576;-33
2021/03/14 00:10:59;;;;;;;2.20;0.67;;;-5.00;41.40;;;;;;4331355;33;20165;-32
2021/03/14 00:13:31;;;;;;;4.37;1.00;;;-4.90;41.50;;;;;;4331619;33;20134;-33
2021/03/14 00:15:58;;;;;;;6.23;0.70;;;-4.90;41.30;;;;;;4319089;33;20145;-32
2021/03/14 00:18:34;;;;;;;3.83;0.67;;;-4.80;41.30;;;;;;4328540;33;20059;-34
2021/03/14 00:21:00;;;;;;;1.63;0.60;;;-4.70;41.20;;;;;;4304747;33;20527;-34
2021/03/14 00:23:27;;;;;;;1.97;0.50;;;-4.70;41.10;;;;;;4316574;33;20074;-34
2021/03/14 00:25:57;;;;;;;4.37;1.00;;;-4.70;41.00;;;;;;4345256;32;20527;-34
2021/03/14 00:28:24;;;;;;;1.60;0.50;;;-4.60;41.10;;;;;;4346058;32;20070;-34
2021/03/14 00:30:50;;;;;;;1.37;0.80;;;-4.60;41.10;;;;;;4345813;32;20596;-34
2021/03/14 00:33:17;;;;;;;2.83;1.27;;;-4.50;41.20;;;;;;4358401;32;20081;-34
2021/03/14 00:35:44;;;;;;;6.07;1.37;;;-4.60;41.20;;;;;;4346055;32;20082;-35
2021/03/14 00:38:10;;;;;;;2.67;0.67;;;-4.60;41.20;;;;;;4333422;32;20070;-35
2021/03/14 00:40:37;;;;;;;2.70;0.60;;;-4.50;41.30;;;;;;4345882;32;20147;-34
2021/03/14 00:43:05;;;;;;;1.90;0.70;;;-4.50;41.30;;;;;;4363033;32;20667;-34
2021/03/14 00:45:34;;;;;;;1.03;0.40;;;-4.50;41.40;;;;;;4348153;32;20481;-34
2021/03/14 00:48:01;;;;;;;3.67;0.70;;;-4.50;41.40;;;;;;4361052;32;20084;-34
2021/03/14 00:50:28;;;;;;;2.47;0.23;;;-4.40;41.50;;;;;;4372787;32;20072;-34
2021/03/14 00:52:55;;;;;;;0.20;0.20;;;-4.40;41.40;;;;;;4360647;32;20088;-34
2021/03/14 00:55:22;;;;;;;0.63;0.20;;;-4.30;41.50;;;;;;4373870;32;20051;-34
2021/03/14 00:57:48;;;;;;;3.50;0.40;;;-4.30;41.50;;;;;;4373717;32;20058;-34
2021/03/14 01:00:15;;;;;;;1.90;0.50;;;-4.30;41.50;;;;;;4375436;32;20059;-33
2021/03/14 01:02:42;;;;;;;1.80;0.47;;;-4.20;41.60;;;;;;4375286;32;20548;-33
2021/03/14 01:05:09;;;;;;;0.40;0.27;;;-4.20;41.60;;;;;;4330577;33;20508;-33
2021/03/14 01:07:36;;;;;;;0.93;0.27;;;-4.20;41.60;;;;;;4342904;33;20082;-33
2021/03/14 01:10:03;;;;;;;0.20;0.20;;;-4.10;41.70;;;;;;4342116;32;20093;-34
2021/03/14 01:12:30;;;;;;;1.43;0.63;;;-4.10;41.70;;;;;;4345310;32;20109;-32
2021/03/14 01:14:56;;;;;;;2.20;0.53;;;-4.10;41.60;;;;;;4332899;32;20077;-32
2021/03/14 01:17:23;;;;;;;1.30;0.63;;;-4.00;41.60;;;;;;4345236;32;20062;-32
2021/03/14 01:19:50;;;;;;;1.20;0.50;;;-4.10;41.50;;;;;;4345259;32;20082;-32
2021/03/14 01:22:18;;;;;;;1.90;0.60;;;-4.00;41.40;;;;;;4345473;32;20160;-34
2021/03/14 01:24:45;;;;;;;7.67;1.30;;;-4.00;41.40;;;;;;4332955;32;20062;-32
2021/03/14 01:27:11;;;;;;;1.90;0.73;;;-4.10;41.30;;;;;;4345640;32;20511;-33
2021/03/14 01:29:39;;;;;;;2.30;0.67;;;-4.10;41.40;;;;;;4358277;32;20059;-32
2021/03/14 01:32:06;;;;;;;3.57;1.00;;;-4.10;41.40;;;;;;4358027;32;20066;-33
2021/03/14 01:34:33;;;;;;;0.27;0.20;;;-4.10;41.50;;;;;;4346404;32;20087;-33
2021/03/14 01:36:59;;;;;;;1.37;0.67;;;-4.10;41.60;;;;;;4369346;32;20066;-34
2021/03/14 01:39:26;;;;;;;2.60;0.90;;;-4.10;41.60;;;;;;4374467;32;20152;-34
2021/03/14 01:41:53;;;;;;;0.70;0.33;;;-4.10;41.60;;;;;;4373163;32;20065;-34
2021/03/14 01:44:19;;;;;;;5.43;1.23;;;-4.10;41.70;;;;;;4344878;32;20065;-34
2021/03/14 01:46:45;;;;;;;6.07;1.00;;;-4.10;41.70;;;;;;4357341;32;20070;-34
2021/03/14 01:49:12;;;;;;;2.47;1.10;;;-4.10;41.80;;;;;;4357219;32;20153;-35
2021/03/14 01:51:38;;;;;;;2.63;1.07;;;-4.10;41.80;;;;;;4357147;32;20058;-35
2021/03/14 01:54:05;;;;;;;1.40;0.80;;;-4.20;41.80;;;;;;4357514;32;20075;-34
2021/03/14 01:56:31;;;;;;;1.20;0.27;;;-4.20;41.80;;;;;;4356852;32;20070;-33
2021/03/14 01:58:58;;;;;;;1.90;1.00;;;-4.20;41.90;;;;;;4356766;32;20221;-32
2021/03/14 02:01:25;;;;;;;5.20;1.60;;;-4.20;42.10;;;;;;4357168;32;20157;-32
2021/03/14 02:03:51;;;;;;;1.83;0.60;;;-4.30;42.40;;;;;;4356622;32;20475;-32
2021/03/14 02:06:20;;;;;;;3.97;1.27;;;-4.30;42.40;;;;;;4344426;32;20098;-33
2021/03/14 02:08:46;;;;;;;1.27;0.47;;;-4.30;42.70;;;;;;4357057;32;20503;-33
2021/03/14 02:11:13;;;;;;;1.50;0.30;;;-4.30;42.70;;;;;;4357340;32;20073;-33
2021/03/14 02:13:48;;;;;;;3.83;0.87;;;-4.30;42.60;;;;;;4356998;32;20462;-33
2021/03/14 02:16:18;;;;;;;5.10;0.98;;;-4.30;42.70;;;;;;4371047;32;20062;-33
2021/03/14 02:19:08;;;;;;;2.70;1.00;;;-4.20;42.70;;;;;;4373062;32;20054;-33
2021/03/14 02:21:34;;;;;;;4.23;0.90;;;-4.20;42.70;;;;;;4372658;32;20074;-33
2021/03/14 02:24:15;;;;;;;1.93;0.83;;;-4.10;42.70;;;;;;4360203;32;20434;-33
2021/03/14 02:26:47;;;;;;;3.53;0.70;;;-4.10;42.70;;;;;;4360931;32;20157;-33
2021/03/14 02:29:19;;;;;;;2.07;0.57;;;-4.00;42.70;;;;;;4373626;32;20098;-33
2021/03/14 02:31:50;;;;;;;0.70;0.37;;;-3.90;42.60;;;;;;4368053;32;20515;-33
2021/03/14 02:34:21;;;;;;;2.77;0.67;;;-3.90;43.30;;;;;;4374284;32;20137;-33
2021/03/14 02:36:50;;;;;;;1.27;0.80;;;-3.80;42.50;;;;;;4372222;32;20062;-33
2021/03/14 02:39:19;;;;;;;3.40;0.70;;;-3.80;42.30;;;;;;4372874;32;20054;-32
2021/03/14 02:41:46;;;;;;;1.13;0.53;;;-3.70;42.30;;;;;;4384478;32;20066;-33
2021/03/14 02:44:14;;;;;;;3.83;0.90;;;-3.70;42.30;;;;;;4384869;32;20117;-33
2021/03/14 02:46:42;;;;;;;2.33;0.80;;;-3.70;42.20;;;;;;4373820;32;20093;-33
2021/03/14 02:49:08;;;;;;;2.03;0.43;;;-3.70;42.20;;;;;;4384839;32;20050;-33
2021/03/14 02:51:38;;;;;;;2.60;0.70;;;-3.60;42.20;;;;;;4372350;32;20059;-35
2021/03/14 02:54:04;;;;;;;2.20;0.70;;;-3.60;42.20;;;;;;4371987;32;20066;-34
2021/03/14 02:56:30;;;;;;;3.80;1.20;;;-3.60;42.20;;;;;;4372317;32;20540;-33
2021/03/14 02:58:57;;;;;;;3.53;1.07;;;-3.60;42.20;;;;;;4343170;32;20093;-34
2021/03/14 03:01:23;;;;;;;5.67;1.57;;;-3.60;42.20;;;;;;4343956;32;20078;-33
2021/03/14 03:03:50;;;;;;;2.50;0.80;;;-3.60;42.20;;;;;;4331732;32;20078;-34
2021/03/14 03:06:17;;;;;;;2.73;0.73;;;-3.60;42.30;;;;;;4343789;32;20074;-33
2021/03/14 03:08:43;;;;;;;1.30;0.70;;;-3.50;42.30;;;;;;4311711;33;20067;-33
2021/03/14 03:11:14;;;;;;;0.87;0.30;;;-3.60;42.20;;;;;;4299925;33;20149;-33
2021/03/14 03:13:40;;;;;;;6.17;0.83;;;-3.50;42.30;;;;;;4299867;33;20094;-33
2021/03/14 03:16:11;;;;;;;4.70;0.90;;;-3.50;42.30;;;;;;4299836;33;20085;-33
2021/03/14 03:18:39;;;;;;;3.37;0.90;;;-3.50;42.30;;;;;;4300121;33;20075;-33
2021/03/14 03:21:07;;;;;;;1.17;0.60;;;-3.50;42.30;;;;;;4311716;33;20086;-34
2021/03/14 03:23:35;;;;;;;5.87;1.13;;;-3.50;42.20;;;;;;4299680;33;20552;-34
2021/03/14 03:26:02;;;;;;;2.30;0.63;;;-3.40;42.30;;;;;;4311619;33;20078;-34
2021/03/14 03:28:29;;;;;;;2.07;0.70;;;-3.50;42.30;;;;;;4311231;33;20111;-34
2021/03/14 03:30:56;;;;;;;1.37;0.73;;;-3.40;42.30;;;;;;4316437;33;20132;-35
2021/03/14 03:33:22;;;;;;;3.50;0.77;;;-3.40;42.30;;;;;;4328594;33;20112;-35
2021/03/14 03:35:49;;;;;;;5.30;1.13;;;-3.40;42.20;;;;;;4329361;33;20055;-35
2021/03/14 03:38:15;;;;;;;5.03;0.97;;;-3.40;42.30;;;;;;4328664;33;20070;-34
2021/03/14 03:40:42;;;;;;;1.90;0.60;;;-3.40;42.40;;;;;;4325590;33;20747;-33
2021/03/14 03:43:34;;;;;;;5.77;1.07;;;-3.30;42.40;;;;;;4313874;33;20174;-35
2021/03/14 03:46:03;;;;;;;4.23;0.80;;;-3.30;42.40;;;;;;4338804;32;20093;-33
2021/03/14 03:48:47;;;;;;;2.93;0.70;;;-3.20;42.50;;;;;;4355663;32;20154;-33
2021/03/14 03:51:31;;;;;;;5.97;0.90;;;-3.20;42.40;;;;;;4343231;32;20128;-33
2021/03/14 03:54:01;;;;;;;2.23;0.40;;;-3.10;42.40;;;;;;4331310;32;20066;-34
2021/03/14 03:56:28;;;;;;;4.53;1.30;;;-3.10;42.40;;;;;;4340354;33;20092;-34
2021/03/14 03:58:54;;;;;;;7.50;0.80;;;-3.10;42.30;;;;;;4340861;33;20079;-35
2021/03/14 04:01:21;;;;;;;2.57;0.60;;;-3.00;42.30;;;;;;4316694;33;20075;-35
2021/03/14 04:03:48;;;;;;;3.17;0.60;;;-2.90;42.30;;;;;;4328621;33;20211;-35
2021/03/14 04:06:15;;;;;;;2.43;0.73;;;-2.80;42.20;;;;;;4313840;33;20087;-35
2021/03/14 04:08:43;;;;;;;4.63;0.60;;;-2.70;42.10;;;;;;4328896;33;20155;-35
2021/03/14 04:11:15;;;;;;;1.67;0.50;;;-2.60;42.00;;;;;;4340389;33;20095;-36
2021/03/14 04:13:43;;;;;;;9.00;0.93;;;-2.50;41.90;;;;;;4316342;33;20083;-34
2021/03/14 04:16:11;;;;;;;2.13;0.80;;;-2.40;41.70;;;;;;4325775;33;20071;-34
2021/03/14 04:18:37;;;;;;;2.43;0.87;;;-2.30;41.60;;;;;;4323267;33;20453;-36
2021/03/14 04:21:06;;;;;;;1.37;0.50;;;-2.20;41.40;;;;;;4274895;33;20099;-34
2021/03/14 04:23:33;;;;;;;1.70;0.77;;;-2.10;41.20;;;;;;4287009;33;20532;-34
2021/03/14 04:26:00;;;;;;;3.77;1.23;;;-2.00;41.00;;;;;;4287198;33;20202;-35
2021/03/14 04:28:29;;;;;;;4.70;1.57;;;-1.90;40.70;;;;;;4299045;33;20087;-36
2021/03/14 04:30:56;;;;;;;1.30;0.90;;;-1.80;40.70;;;;;;4299030;33;20519;-38
2021/03/14 04:33:23;;;;;;;1.93;0.70;;;-1.70;40.40;;;;;;4263692;33;20149;-34
2021/03/14 04:35:51;;;;;;;3.77;0.97;;;-1.60;40.20;;;;;;4311335;33;20055;-34
2021/03/14 04:38:18;;;;;;;4.00;1.10;;;-1.60;39.90;;;;;;4338601;33;20157;-35
2021/03/14 04:40:45;;;;;;;5.87;1.50;;;-1.60;39.60;;;;;;4328766;33;20694;-34
2021/03/14 04:43:12;;;;;;;2.20;0.63;;;-1.50;39.70;;;;;;4328218;33;20070;-35
2021/03/14 04:45:38;;;;;;;2.83;1.70;;;-1.40;39.60;;;;;;4298846;33;20071;-36
2021/03/14 04:48:05;;;;;;;2.20;0.70;;;-1.30;39.50;;;;;;4311503;33;20488;-35
2021/03/14 04:50:32;;;;;;;1.10;0.53;;;-1.20;39.40;;;;;;4338766;32;20667;-35
2021/03/14 04:53:00;;;;;;;5.87;1.37;;;-1.10;39.20;;;;;;4313355;33;20146;-36
2021/03/14 04:55:28;;;;;;;0.40;0.30;;;-1.00;39.10;;;;;;4301931;33;20075;-39
2021/03/14 04:57:55;;;;;;;2.07;0.70;;;-0.90;38.90;;;;;;4302106;33;20480;-35
2021/03/14 05:00:23;;;;;;;8.50;1.77;;;-0.80;38.70;;;;;;4290121;33;20139;-35
2021/03/14 05:02:55;;;;;;;2.37;0.77;;;-0.70;38.50;;;;;;4301446;33;20159;-36
2021/03/14 05:05:22;;;;;;;2.90;0.80;;;-0.60;38.40;;;;;;4302411;33;20133;-36
2021/03/14 05:07:49;;;;;;;3.40;0.50;;;-0.50;38.20;;;;;;4272381;33;20226;-35
2021/03/14 05:10:21;;;;;;;3.17;1.10;;;-0.40;38.20;;;;;;4294451;33;20580;-35
2021/03/14 05:12:48;;;;;;;6.90;0.77;;;-0.30;38.00;;;;;;4296112;33;20501;-36
2021/03/14 05:15:16;;;;;;;4.03;0.60;;;-0.20;37.90;;;;;;4296749;33;20079;-34
2021/03/14 05:17:45;;;;;;;6.53;1.20;;;-0.20;37.50;;;;;;4284224;33;20575;-34
2021/03/14 05:20:14;;;;;;;2.80;1.23;;;-0.10;37.50;;;;;;4296696;33;20072;-34
2021/03/14 05:22:42;;;;;;;2.33;0.70;;;0.00;37.30;;;;;;4303748;33;20227;-33
2021/03/14 05:25:10;;;;;;;1.07;0.60;;;0.10;37.30;;;;;;4313565;33;20067;-34
2021/03/14 05:27:36;;;;;;;2.20;0.40;;;0.20;37.30;;;;;;4289746;33;20539;-34
2021/03/14 05:30:07;;;;;;;3.07;0.70;;;0.30;37.10;;;;;;4299417;33;20078;-36
2021/03/14 05:32:33;;;;;;;3.13;1.23;;;0.50;37.10;;;;;;4343012;33;20070;-34
2021/03/14 05:35:00;;;;;;;2.37;0.93;;;0.70;36.90;;;;;;4342897;33;20054;-36
2021/03/14 05:37:26;;;;;;;1.53;0.60;;;0.80;36.60;;;;;;4318527;33;20063;-36
2021/03/14 05:39:53;;;;;;;3.87;0.90;;;1.00;36.30;;;;;;4344810;32;20127;-35
2021/03/14 05:42:20;;;;;;;2.90;0.80;;;1.10;36.20;;;;;;4358413;32;20541;-37
2021/03/14 05:44:46;;;;;;;3.70;0.67;;;1.30;35.80;;;;;;4346451;32;20102;-35
2021/03/14 05:47:13;;;;;;;5.53;1.73;;;1.50;35.80;;;;;;4358680;32;20259;-35
2021/03/14 05:49:40;;;;;;;13.37;1.67;;;1.70;35.60;;;;;;4358993;32;20086;-35
2021/03/14 05:52:07;;;;;;;2.80;0.70;;;1.80;35.20;;;;;;4359970;32;20059;-34
2021/03/14 05:54:33;;;;;;;11.90;1.40;;;1.90;35.10;;;;;;4358364;32;20551;-35
2021/03/14 05:57:02;;;;;;;6.13;1.13;;;2.00;34.60;;;;;;4358914;32;20142;-36
2021/03/14 05:59:30;;;;;;;8.80;1.50;;;2.10;34.40;;;;;;4358791;32;20135;-36
2021/03/14 06:01:57;;;;;;;6.03;0.93;;;2.30;34.20;;;;;;4357370;32;20198;-36
2021/03/14 06:04:24;;;;;;;5.87;0.90;;;2.40;33.80;;;;;;4332987;32;20050;-37
2021/03/14 06:06:51;;;;;;;14.00;0.90;;;2.50;33.80;;;;;;4357724;32;20702;-37
2021/03/14 06:09:18;;;;;;;7.40;0.87;;;2.50;33.50;;;;;;4364828;32;20074;-37
2021/03/14 06:11:44;;;;;;;2.63;1.00;;;2.60;33.30;;;;;;4347551;32;20201;-36
2021/03/14 06:14:11;;;;;;;3.67;1.23;;;2.60;32.60;;;;;;4359568;32;20583;-35
2021/03/14 06:16:37;;;;;;;3.93;1.00;;;2.60;32.70;;;;;;4360245;32;20499;-35
2021/03/14 06:19:05;;;;;;;5.00;1.13;;;2.50;32.40;;;;;;4372306;32;20133;-36
2021/03/14 06:21:32;;;;;;;12.07;1.40;;;2.40;32.70;;;;;;4347384;32;20078;-34
2021/03/14 06:24:03;;;;;;;8.13;1.67;;;2.30;32.90;;;;;;4359509;32;20625;-36
2021/03/14 06:26:48;;;;;;;15.00;1.70;;;2.30;33.10;;;;;;4372763;32;20068;-36
2021/03/14 06:29:17;;;;;;;9.00;1.40;;;2.30;32.90;;;;;;4360718;32;20074;-37
2021/03/14 06:31:51;;;;;;;4.47;1.03;;;2.30;32.60;;;;;;4371834;32;20068;-36
2021/03/14 06:34:30;;;;;;;7.17;1.53;;;2.30;32.80;;;;;;4359985;32;20546;-36
2021/03/14 06:37:20;;;;;;;8.03;1.37;;;2.30;32.70;;;;;;4359564;32;20074;-36
2021/03/14 06:39:50;;;;;;;11.93;1.30;;;2.40;32.60;;;;;;4357501;32;20565;-36
2021/03/14 06:42:37;;;;;;;5.93;1.13;;;2.40;32.30;;;;;;4357708;32;20102;-36
2021/03/14 06:45:11;;;;;;;4.83;1.57;;;2.40;32.40;;;;;;4359518;32;20066;-40
2021/03/14 06:47:46;;;;;;;5.57;1.05;;;2.30;32.20;;;;;;4345656;32;20708;-37
2021/03/14 06:50:40;;;;;;;10.60;2.15;;;2.30;32.50;;;;;;4359332;32;20066;-37
2021/03/14 06:53:18;;;;;;;3.83;1.47;;;2.40;32.60;;;;;;4357855;32;20062;-36
2021/03/14 06:55:49;;;;;;;7.73;2.10;;;2.50;32.20;;;;;;4345675;32;20055;-38
2021/03/14 06:58:29;;;;;;;2.83;0.80;;;2.40;32.10;;;;;;4326770;33;20072;-38
2021/03/14 07:01:16;;;;;;;3.23;0.90;;;2.40;31.50;;;;;;4315389;33;20173;-37
2021/03/14 07:03:50;;;;;;;9.17;1.50;;;2.40;31.80;;;;;;4327086;33;20079;-36
2021/03/14 07:06:25;;;;;;;21.53;2.67;;;2.40;31.60;;;;;;4311967;33;20076;-37
2021/03/14 07:09:08;;;;;;;12.48;1.75;;;2.40;31.80;;;;;;4312302;33;20088;-37
2021/03/14 07:11:38;;;;;;;7.93;1.30;;;2.40;31.80;;;;;;4286468;33;20142;-41
2021/03/14 07:14:09;;;;;;;12.70;1.80;;;2.50;32.00;;;;;;4297389;33;20087;-37
2021/03/14 07:16:51;;;;;;;12.77;1.60;;;2.70;31.70;;;;;;4297428;33;20060;-39
2021/03/14 07:19:25;;;;;;;5.77;1.10;;;2.80;31.30;;;;;;4297816;33;20077;-37
2021/03/14 07:22:09;;;;;;;4.43;0.60;;;3.00;31.10;;;;;;4297842;33;20080;-38
2021/03/14 07:24:44;;;;;;;27.37;3.20;;;3.10;30.60;;;;;;4298346;33;20141;-35
2021/03/14 07:27:20;;;;;;;4.43;0.70;;;3.20;30.70;;;;;;4280402;33;20167;-36
2021/03/14 07:29:51;;;;;;;9.83;0.97;;;3.30;30.70;;;;;;4289678;33;20056;-36
2021/03/14 07:32:18;;;;;;;13.50;1.60;;;3.40;30.30;;;;;;4268964;33;20069;-35
2021/03/14 07:34:44;;;;;;;3.13;0.80;;;3.50;30.40;;;;;;4269417;33;20087;-37
2021/03/14 07:37:11;;;;;;;9.80;1.30;;;3.60;30.00;;;;;;4281570;33;20187;-37
2021/03/14 07:39:37;;;;;;;1.60;1.00;;;3.70;30.00;;;;;;4297958;33;20100;-36
2021/03/14 07:42:04;;;;;;;12.70;1.00;;;3.80;29.70;;;;;;4304419;33;20068;-37
2021/03/14 07:44:31;;;;;;;9.20;1.37;;;3.80;29.80;;;;;;4285593;33;20587;-37
2021/03/14 07:46:57;;;;;;;10.77;0.70;;;4.00;29.70;;;;;;4273154;33;20088;-36
2021/03/14 07:49:28;;;;;;;9.03;1.67;;;4.10;29.70;;;;;;4297834;33;20094;-35
2021/03/14 07:52:05;;;;;;;25.93;2.93;;;4.30;29.90;;;;;;4297819;33;20174;-37
2021/03/14 07:55:12;;;;;;;2.73;0.90;;;4.40;29.50;;;;;;4297753;33;20103;-36
2021/03/14 07:57:46;;;;;;;7.50;0.47;;;4.50;29.90;;;;;;4264232;33;20605;-36
2021/03/14 08:00:27;;;;;;;4.40;1.23;;;4.60;29.30;;;;;;4254611;33;20144;-39
2021/03/14 08:02:56;;;;;;;15.23;2.00;;;4.60;29.30;;;;;;4242740;33;20156;-37
2021/03/14 08:05:37;;;;;;;6.97;1.00;;;4.70;29.50;;;;;;4254237;33;20159;-38
2021/03/14 08:08:05;;;;;;;9.13;1.07;;;4.80;29.30;;;;;;4254305;33;20080;-38
2021/03/14 08:10:34;;;;;;;2.20;0.63;;;4.90;29.30;;;;;;4306164;33;20142;-36
2021/03/14 08:13:02;;;;;;;6.33;0.83;;;4.90;29.20;;;;;;4256444;33;20208;-36
2021/03/14 08:15:30;;;;;;;4.53;1.57;;;4.90;29.10;;;;;;4268514;33;20084;-37
2021/03/14 08:17:58;;;;;;;3.07;1.03;;;4.80;29.20;;;;;;4233392;33;20543;-38
2021/03/14 08:20:45;;;;;;;5.83;1.20;;;4.80;29.50;;;;;;4214947;33;20070;-37
2021/03/14 08:23:16;;;;;;;17.73;1.37;;;4.80;29.50;;;;;;4253909;33;20176;-37
2021/03/14 08:25:45;;;;;;;8.93;1.47;;;4.80;29.80;;;;;;4225759;33;20065;-39
2021/03/14 08:28:33;;;;;;;6.47;1.70;;;5.00;29.90;;;;;;4228860;33;20085;-38
2021/03/14 08:31:04;;;;;;;8.20;1.07;;;5.10;29.50;;;;;;4228661;33;20096;-37
2021/03/14 08:33:42;;;;;;;9.73;1.07;;;5.10;29.30;;;;;;4254732;33;20112;-36
2021/03/14 08:36:14;;;;;;;12.57;0.83;;;5.10;28.90;;;;;;4285892;33;20564;-34
2021/03/14 08:38:47;;;;;;;2.83;0.70;;;5.00;29.50;;;;;;4285650;33;20100;-39
2021/03/14 08:41:44;;;;;;;14.90;1.37;;;4.90;29.70;;;;;;4285485;33;20170;-36
2021/03/14 08:44:13;;;;;;;5.73;0.80;;;4.90;29.90;;;;;;4301715;33;20145;-39
2021/03/14 08:46:48;;;;;;;12.80;0.90;;;4.90;29.20;;;;;;4314915;33;20071;-36
2021/03/14 08:49:16;;;;;;;5.78;0.80;;;4.80;29.30;;;;;;4314129;33;20092;-35
2021/03/14 08:51:43;;;;;;;4.33;0.60;;;4.70;29.30;;;;;;4314199;33;20077;-36
2021/03/14 08:54:10;;;;;;;8.40;0.90;;;4.60;29.10;;;;;;4314484;33;20071;-37
2021/03/14 08:56:36;;;;;;;15.43;1.63;;;4.50;29.60;;;;;;4334322;32;20062;-36
2021/03/14 08:59:13;;;;;;;5.80;0.70;;;4.30;29.70;;;;;;4358107;32;20069;-37
2021/03/14 09:01:40;;;;;;;12.67;1.30;;;4.10;30.00;;;;;;4317338;33;20059;-38
2021/03/14 09:04:14;;;;;;;16.17;2.60;;;3.80;30.10;;;;;;4316769;33;20067;-36
2021/03/14 09:06:41;;;;;;;3.93;1.13;;;3.60;30.90;;;;;;4328613;33;20067;-38
2021/03/14 09:09:12;;;;;;;5.23;0.80;;;3.50;31.30;;;;;;4322085;33;20263;-35
2021/03/14 09:11:48;;;;;;;6.00;1.00;;;3.30;31.30;;;;;;4331218;33;20070;-36
2021/03/14 09:14:40;;;;;;;14.83;1.20;;;3.30;31.60;;;;;;4343572;33;20070;-36
2021/03/14 09:17:08;;;;;;;11.90;1.70;;;3.20;32.40;;;;;;4343203;33;20594;-36
2021/03/14 09:19:41;;;;;;;15.07;2.60;;;3.30;32.80;;;;;;4334694;32;20061;-37
2021/03/14 09:22:25;;;;;;;3.50;0.70;;;3.40;33.70;;;;;;4342733;33;20086;-37
2021/03/14 09:24:54;;;;;;;10.07;1.07;;;3.60;33.20;;;;;;4331181;33;20066;-37
2021/03/14 09:27:23;;;;;;;7.17;1.00;;;3.90;32.90;;;;;;4330957;33;20142;-36
2021/03/14 09:29:56;;;;;;;5.17;0.90;;;4.20;32.00;;;;;;4331383;33;20152;-37
2021/03/14 09:32:41;;;;;;;7.70;0.93;;;4.30;32.10;;;;;;4348901;32;20074;-38
2021/03/14 09:35:26;;;;;;;4.03;0.90;;;4.60;31.60;;;;;;4345996;32;20078;-39
2021/03/14 09:38:14;;;;;;;8.25;0.70;;;4.80;31.90;;;;;;4345371;32;20187;-38
2021/03/14 09:40:48;;;;;;;12.77;1.57;;;5.20;31.80;;;;;;4358181;32;20074;-37
2021/03/14 09:43:23;;;;;;;7.93;1.07;;;5.40;31.40;;;;;;4358047;32;20066;-35
2021/03/14 09:45:52;;;;;;;2.75;0.93;;;5.50;31.10;;;;;;4358353;32;20166;-36
2021/03/14 09:48:32;;;;;;;7.20;0.67;;;5.70;30.80;;;;;;4346174;32;20138;-37
2021/03/14 09:51:07;;;;;;;8.27;1.47;;;5.90;30.60;;;;;;4358443;32;20078;-37
2021/03/14 09:53:38;;;;;;;5.32;0.70;;;5.90;30.20;;;;;;4346096;32;20101;-36
2021/03/14 09:56:10;;;;;;;1.83;0.50;;;6.00;30.40;;;;;;4358313;32;20198;-36
2021/03/14 09:58:37;;;;;;;6.33;1.20;;;6.20;29.90;;;;;;4347920;32;20183;-38
2021/03/14 10:01:04;;;;;;;7.40;1.23;;;6.20;29.40;;;;;;4374249;32;20543;-38
2021/03/14 10:03:34;;;;;;;7.63;0.73;;;6.20;29.60;;;;;;4375669;32;20528;-36
2021/03/14 10:06:03;;;;;;;3.63;1.13;;;6.20;29.60;;;;;;4375712;32;20101;-36
2021/03/14 10:08:35;;;;;;;2.70;0.80;;;6.20;29.90;;;;;;4363895;32;20539;-39
2021/03/14 10:11:11;;;;;;;8.37;1.10;;;6.10;29.70;;;;;;4388945;32;20089;-36
2021/03/14 10:13:38;;;;;;;3.83;1.00;;;6.00;30.00;;;;;;4377398;32;20058;-36
2021/03/14 10:16:09;;;;;;;2.50;0.80;;;5.90;30.40;;;;;;4364136;32;20150;-36
2021/03/14 10:18:36;;;;;;;7.47;0.93;;;5.90;31.10;;;;;;4376967;32;20086;-36
2021/03/14 10:21:28;;;;;;;9.47;1.77;;;5.80;30.50;;;;;;4363761;32;20146;-36
2021/03/14 10:24:17;;;;;;;8.10;0.93;;;5.70;30.80;;;;;;4388715;32;20067;-36
2021/03/14 10:27:04;;;;;;;4.40;0.50;;;5.70;30.80;;;;;;4390669;32;20523;-36
2021/03/14 10:29:40;;;;;;;2.87;0.67;;;5.70;30.60;;;;;;4390245;32;20060;-37
2021/03/14 10:32:28;;;;;;;3.90;1.20;;;5.60;30.60;;;;;;4376048;32;20081;-38
2021/03/14 10:35:04;;;;;;;7.83;0.87;;;5.40;30.80;;;;;;4388266;32;20072;-37
2021/03/14 10:37:35;;;;;;;2.87;0.47;;;5.40;31.00;;;;;;4364097;32;20062;-39
2021/03/14 10:40:13;;;;;;;4.03;1.00;;;5.40;31.30;;;;;;4389808;32;20062;-39
2021/03/14 10:42:50;;;;;;;2.73;1.10;;;5.40;31.10;;;;;;4375943;32;20062;-37
2021/03/14 10:45:19;;;;;;;2.63;1.07;;;5.50;31.20;;;;;;4375799;32;20716;-38
2021/03/14 10:48:03;;;;;;;3.43;0.80;;;5.50;31.50;;;;;;4357540;32;20629;-37
2021/03/14 10:50:33;;;;;;;6.70;0.50;;;5.50;32.20;;;;;;4346408;32;20073;-36
2021/03/14 10:53:17;;;;;;;2.37;0.67;;;5.50;31.70;;;;;;4357527;32;20152;-35
2021/03/14 10:55:44;;;;;;;3.33;0.93;;;5.40;31.90;;;;;;4345130;32;20160;-36
2021/03/14 10:58:18;;;;;;;2.37;0.93;;;5.30;31.70;;;;;;4332637;32;20060;-36
2021/03/14 11:00:53;;;;;;;5.23;1.37;;;5.30;31.80;;;;;;4357228;32;20081;-37
2021/03/14 11:03:38;;;;;;;;;;;5.10;31.40;;;;;;4345237;32;20059;-37
2021/03/14 11:06:24;;;;;;;3.80;0.80;;;5.00;32.00;;;;;;4357243;32;19950;-38
2021/03/14 11:09:10;;;;;;;1.35;0.70;;;4.90;32.60;;;;;;4341486;33;20082;-37
2021/03/14 11:11:43;;;;;;;4.50;0.93;;;4.80;32.70;;;;;;4341670;33;20081;-37
2021/03/14 11:14:28;;;;;;;5.50;1.10;;;4.80;32.90;;;;;;4341875;33;20067;-38
2021/03/14 11:17:18;;;;;;;2.90;0.60;;;4.80;32.60;;;;;;4341352;33;20074;-37
2021/03/14 11:19:52;;;;;;;1.80;0.50;;;4.80;32.90;;;;;;4371093;32;20142;-37
2021/03/14 11:22:19;;;;;;;1.40;0.70;;;4.80;33.20;;;;;;4374311;32;20050;-37
2021/03/14 11:24:47;;;;;;;1.70;0.50;;;4.80;32.70;;;;;;4373980;32;20065;-37
2021/03/14 11:27:14;;;;;;;7.03;0.90;;;4.80;32.40;;;;;;4372343;32;20112;-41
2021/03/14 11:29:43;;;;;;;7.40;0.97;;;4.80;32.20;;;;;;4360209;32;20065;-38
2021/03/14 11:32:11;;;;;;;4.17;0.50;;;4.60;32.40;;;;;;4372127;32;20888;-36
2021/03/14 11:34:39;;;;;;;1.50;0.50;;;4.40;32.80;;;;;;4389031;32;20153;-36
2021/03/14 11:37:06;;;;;;;3.67;1.00;;;4.30;33.40;;;;;;4374694;32;20165;-37
2021/03/14 11:39:33;;;;;;;2.57;0.60;;;4.30;33.80;;;;;;4388974;32;20095;-38
2021/03/14 11:41:59;;;;;;;2.00;0.90;;;4.20;33.80;;;;;;4374387;32;20061;-37
2021/03/14 11:44:26;;;;;;;1.57;0.80;;;4.30;33.30;;;;;;4387061;32;20062;-38
2021/03/14 11:46:52;;;;;;;2.70;0.87;;;4.20;33.10;;;;;;4387321;32;20629;-37
2021/03/14 11:49:19;;;;;;;3.73;0.80;;;4.20;33.30;;;;;;4389026;32;20050;-39
2021/03/14 11:51:45;;;;;;;4.37;0.60;;;4.10;33.60;;;;;;4387607;32;20053;-38
2021/03/14 11:54:16;;;;;;;2.73;0.67;;;4.10;33.80;;;;;;4374736;32;20093;-38
2021/03/14 11:56:44;;;;;;;1.30;0.50;;;4.00;34.10;;;;;;4388560;32;20065;-38
2021/03/14 11:59:11;;;;;;;0.87;0.60;;;3.90;33.60;;;;;;4388943;32;20523;-37
2021/03/14 12:01:38;;;;;;;2.07;0.63;;;3.80;33.70;;;;;;4388166;32;20049;-36
2021/03/14 12:04:05;;;;;;;5.53;0.80;;;3.70;34.20;;;;;;4386928;32;20073;-37
2021/03/14 12:06:32;;;;;;;0.93;0.33;;;3.50;34.50;;;;;;4374044;32;20516;-37
2021/03/14 12:08:59;;;;;;;7.10;0.70;;;3.40;34.40;;;;;;4355766;32;20059;-36
2021/03/14 12:11:26;;;;;;;1.57;0.50;;;3.20;34.80;;;;;;4343963;32;20078;-37
2021/03/14 12:13:52;;;;;;;2.67;0.53;;;3.20;34.90;;;;;;4343482;32;20083;-37
2021/03/14 12:16:19;;;;;;;1.70;0.50;;;3.10;35.20;;;;;;4343939;32;20079;-37
2021/03/14 12:18:46;;;;;;;2.77;0.70;;;3.10;35.60;;;;;;4343504;32;20082;-36
2021/03/14 12:21:13;;;;;;;3.90;1.00;;;3.10;35.60;;;;;;4355447;32;20131;-38
2021/03/14 12:23:39;;;;;;;2.70;0.60;;;3.00;35.90;;;;;;4356111;32;20607;-38
2021/03/14 12:26:06;;;;;;;3.33;0.70;;;2.90;35.80;;;;;;4331315;32;20436;-36
2021/03/14 12:28:33;;;;;;;4.43;0.93;;;2.90;36.10;;;;;;4343646;32;20554;-36
2021/03/14 12:31:00;;;;;;;4.73;0.97;;;2.80;36.30;;;;;;4343354;32;20073;-37
2021/03/14 12:33:26;;;;;;;3.00;0.83;;;2.70;36.20;;;;;;4344197;32;20252;-36
2021/03/14 12:35:53;;;;;;;4.30;0.57;;;2.60;36.30;;;;;;4355973;32;20086;-36
2021/03/14 12:38:20;;;;;;;1.17;0.67;;;2.60;35.90;;;;;;4355403;32;20125;-37
2021/03/14 12:40:47;;;;;;;1.67;0.60;;;2.60;36.10;;;;;;4355922;32;20054;-36
2021/03/14 12:43:14;;;;;;;6.90;0.60;;;2.50;36.00;;;;;;4355674;32;20083;-37
2021/03/14 12:45:42;;;;;;;3.37;0.67;;;2.50;36.40;;;;;;4346485;32;20059;-37
2021/03/14 12:48:09;;;;;;;2.93;0.90;;;2.50;36.10;;;;;;4346271;32;20098;-37
2021/03/14 12:50:36;;;;;;;1.57;0.50;;;2.50;36.00;;;;;;4370679;32;20112;-37
2021/03/14 12:53:03;;;;;;;2.60;0.40;;;2.50;35.60;;;;;;4358293;32;20078;-36
2021/03/14 12:55:29;;;;;;;3.70;0.53;;;2.50;35.70;;;;;;4358146;32;20090;-38
2021/03/14 12:57:56;;;;;;;4.07;0.60;;;2.40;35.50;;;;;;4370571;32;20432;-37
2021/03/14 13:00:23;;;;;;;5.97;0.67;;;2.40;35.80;;;;;;4358242;32;20081;-39
2021/03/14 13:02:49;;;;;;;2.17;0.60;;;2.40;36.00;;;;;;4325606;33;20086;-38
2021/03/14 13:05:16;;;;;;;0.97;0.40;;;2.40;35.60;;;;;;4325776;33;20079;-36
2021/03/14 13:07:43;;;;;;;3.10;0.57;;;2.40;35.60;;;;;;4313676;33;20145;-37
2021/03/14 13:10:10;;;;;;;0.57;0.30;;;2.30;35.30;;;;;;4325994;33;20177;-35